createdAt,value
2018-02-20T00:00:24.404Z,74.90
2018-02-20T00:02:52.882Z,74.41
2018-02-20T00:05:21.308Z,74.99
2018-02-20T00:07:49.721Z,75.67
2018-02-20T00:10:18.182Z,75.78
2018-02-20T00:12:46.612Z,76.27
2018-02-20T00:15:15.033Z,75.87
2018-02-20T00:17:43.499Z,75.75
2018-02-20T00:20:11.919Z,75.72
2018-02-20T00:22:40.344Z,75.71
2018-02-20T00:25:08.827Z,75.77
2018-02-20T00:27:37.263Z,75.84
2018-02-20T00:30:05.687Z,75.65
2018-02-20T00:32:34.152Z,75.80
2018-02-20T00:35:02.562Z,75.74
2018-02-20T00:37:30.995Z,75.57
2018-02-20T00:39:59.464Z,75.62
2018-02-20T00:42:27.902Z,75.86
2018-02-20T00:44:56.341Z,75.69
2018-02-20T00:47:24.827Z,75.76
2018-02-20T00:49:53.256Z,75.74
2018-02-20T00:52:21.685Z,75.56
2018-02-20T00:54:50.146Z,75.92
2018-02-20T00:57:18.570Z,75.86
2018-02-20T00:59:46.992Z,75.65
2018-02-20T01:02:15.454Z,75.63
2018-02-20T01:04:43.874Z,75.71
2018-02-20T01:07:12.294Z,75.58
2018-02-20T01:09:40.756Z,75.67
2018-02-20T01:12:09.174Z,76.37
2018-02-20T01:14:37.601Z,75.94
2018-02-20T01:17:06.096Z,75.98
2018-02-20T01:19:34.531Z,75.87
2018-02-20T01:22:02.950Z,76.14
2018-02-20T01:24:31.428Z,75.89
2018-02-20T01:26:59.860Z,75.84
2018-02-20T01:29:28.289Z,75.77
2018-02-20T01:31:56.760Z,75.93
2018-02-20T01:34:25.181Z,76.89
2018-02-20T01:36:53.602Z,76.88
2018-02-20T01:39:22.062Z,78.22
2018-02-20T01:41:50.492Z,78.55
2018-02-20T01:44:18.928Z,78.55
2018-02-20T01:46:47.407Z,78.77
2018-02-20T01:49:15.818Z,79.10
2018-02-20T01:51:44.259Z,78.44
2018-02-20T01:54:12.711Z,77.78
2018-02-20T01:56:41.130Z,77.46
2018-02-20T01:59:09.547Z,77.61
2018-02-20T02:01:37.997Z,77.03
2018-02-20T02:04:06.428Z,76.96
2018-02-20T02:06:34.851Z,76.97
2018-02-20T02:09:03.349Z,76.82
2018-02-20T02:11:31.787Z,76.77
2018-02-20T02:14:00.204Z,76.68
2018-02-20T02:16:28.672Z,76.70
2018-02-20T02:18:57.104Z,76.85
2018-02-20T02:21:25.548Z,76.89
2018-02-20T02:23:54.023Z,76.92
2018-02-20T02:26:22.441Z,76.92
2018-02-20T02:28:50.868Z,76.89
2018-02-20T02:31:19.329Z,76.84
2018-02-20T02:33:47.757Z,76.93
2018-02-20T02:36:16.195Z,76.73
2018-02-20T02:38:44.668Z,77.14
2018-02-20T02:41:13.100Z,77.27
2018-02-20T02:43:41.570Z,76.69
2018-02-20T02:46:10.045Z,76.89
2018-02-20T02:48:38.470Z,77.42
2018-02-20T02:51:06.905Z,77.03
2018-02-20T02:53:35.388Z,77.55
2018-02-20T02:56:03.833Z,77.66
2018-02-20T02:58:32.254Z,77.63
2018-02-20T03:01:00.730Z,78.49
2018-02-20T03:03:29.157Z,77.94
2018-02-20T03:05:57.601Z,77.71
2018-02-20T03:08:26.073Z,77.61
2018-02-20T03:10:54.499Z,77.93
2018-02-20T03:13:22.944Z,77.91
2018-02-20T03:15:51.414Z,78.14
2018-02-20T03:18:19.843Z,78.38
2018-02-20T03:20:48.279Z,78.28
2018-02-20T03:23:16.746Z,78.63
2018-02-20T03:25:45.180Z,78.16
2018-02-20T03:28:13.623Z,78.19
2018-02-20T03:30:42.091Z,78.14
2018-02-20T03:33:10.524Z,78.14
2018-02-20T03:35:38.964Z,78.17
2018-02-20T03:38:07.438Z,77.88
2018-02-20T03:40:35.873Z,78.12
2018-02-20T03:43:04.299Z,78.40
2018-02-20T03:45:32.771Z,78.31
2018-02-20T03:48:01.193Z,78.23
2018-02-20T03:50:29.624Z,78.07
2018-02-20T03:52:58.102Z,78.20
2018-02-20T03:55:26.536Z,78.03
2018-02-20T03:57:54.968Z,78.25
2018-02-20T04:00:23.447Z,78.32
2018-02-20T04:02:51.897Z,78.60
2018-02-20T04:05:20.336Z,78.42
2018-02-20T04:07:48.817Z,78.18
2018-02-20T04:10:17.238Z,78.30
2018-02-20T04:12:45.672Z,78.08
2018-02-20T04:15:14.143Z,77.98
2018-02-20T04:17:42.568Z,78.19
2018-02-20T04:20:10.989Z,78.05
2018-02-20T04:22:39.471Z,78.22
2018-02-20T04:25:07.904Z,78.40
2018-02-20T04:27:36.335Z,78.53
2018-02-20T04:30:04.802Z,78.39
2018-02-20T04:32:33.247Z,78.32
2018-02-20T04:35:01.684Z,78.33
2018-02-20T04:37:30.371Z,78.33
2018-02-20T04:39:58.805Z,78.61
2018-02-20T04:42:27.236Z,79.07
2018-02-20T04:44:55.712Z,79.46
2018-02-20T04:47:24.130Z,79.84
2018-02-20T04:49:52.564Z,79.82
2018-02-20T04:52:21.027Z,79.77
2018-02-20T04:54:49.461Z,79.82
2018-02-20T04:57:17.891Z,79.83
2018-02-20T04:59:46.383Z,80.34
2018-02-20T05:02:14.822Z,80.99
2018-02-20T05:04:43.260Z,80.90
2018-02-20T05:07:11.714Z,81.61
2018-02-20T05:09:40.147Z,80.99
2018-02-20T05:12:08.570Z,80.40
2018-02-20T05:14:37.281Z,80.03
2018-02-20T05:17:05.711Z,80.10
2018-02-20T05:19:34.129Z,81.34
2018-02-20T05:22:02.598Z,81.64
2018-02-20T05:24:31.026Z,82.08
2018-02-20T05:26:59.460Z,81.77
2018-02-20T05:29:27.917Z,82.04
2018-02-20T05:31:56.369Z,82.02
2018-02-20T05:34:24.789Z,81.53
2018-02-20T05:36:53.251Z,81.71
2018-02-20T05:39:21.678Z,81.32
2018-02-20T05:41:50.116Z,80.94
2018-02-20T05:44:18.613Z,80.69
2018-02-20T05:46:47.039Z,80.88
2018-02-20T05:49:15.474Z,81.14
2018-02-20T05:51:43.941Z,80.90
2018-02-20T05:54:12.363Z,80.70
2018-02-20T05:56:40.802Z,80.71
2018-02-20T05:59:09.261Z,80.43
2018-02-20T06:01:37.699Z,79.80
2018-02-20T06:04:06.152Z,79.78
2018-02-20T06:06:34.669Z,79.89
2018-02-20T06:09:03.136Z,80.31
2018-02-20T06:11:31.567Z,79.92
2018-02-20T06:14:00.026Z,79.74
2018-02-20T06:16:28.458Z,79.90
2018-02-20T06:18:56.888Z,79.43
2018-02-20T06:21:25.374Z,79.28
2018-02-20T06:23:53.795Z,79.36
2018-02-20T06:26:22.213Z,79.27
2018-02-20T06:28:50.674Z,78.97
2018-02-20T06:31:19.099Z,79.17
2018-02-20T06:33:47.513Z,79.28
2018-02-20T06:36:15.974Z,79.33
2018-02-20T06:38:44.408Z,79.41
2018-02-20T06:41:12.834Z,79.37
2018-02-20T06:43:41.293Z,79.40
2018-02-20T06:46:09.715Z,79.42
2018-02-20T06:48:38.144Z,79.94
2018-02-20T06:51:06.606Z,79.61
2018-02-20T06:53:35.021Z,79.63
2018-02-20T06:56:03.438Z,79.61
2018-02-20T06:58:31.906Z,79.66
2018-02-20T07:01:00.330Z,79.61
2018-02-20T07:03:28.750Z,79.78
2018-02-20T07:05:57.231Z,79.56
2018-02-20T07:08:25.676Z,79.39
2018-02-20T07:10:54.112Z,79.20
2018-02-20T07:13:22.588Z,80.26
2018-02-20T07:15:51.013Z,80.36
2018-02-20T07:18:19.430Z,79.99
2018-02-20T07:20:47.903Z,80.22
2018-02-20T07:23:16.340Z,80.62
2018-02-20T07:25:44.776Z,80.23
2018-02-20T07:28:13.259Z,80.23
2018-02-20T07:30:41.686Z,80.01
2018-02-20T07:33:10.110Z,80.69
2018-02-20T07:35:38.574Z,80.69
2018-02-20T07:38:07.003Z,80.39
2018-02-20T07:40:35.439Z,80.90
2018-02-20T07:43:03.902Z,80.98
2018-02-20T07:45:32.343Z,81.37
2018-02-20T07:48:00.773Z,81.27
2018-02-20T07:50:29.237Z,81.64
2018-02-20T07:52:57.667Z,81.26
2018-02-20T07:55:26.104Z,81.20
2018-02-20T07:57:54.577Z,80.86
2018-02-20T08:00:23.020Z,81.79
2018-02-20T08:02:51.481Z,82.23
2018-02-20T08:05:19.942Z,81.47
2018-02-20T08:07:48.365Z,81.93
2018-02-20T08:10:16.789Z,81.85
2018-02-20T08:12:45.266Z,81.45
2018-02-20T08:15:13.682Z,81.79
2018-02-20T08:17:42.116Z,81.77
2018-02-20T08:20:10.587Z,82.10
2018-02-20T08:22:39.015Z,81.98
2018-02-20T08:25:07.453Z,81.81
2018-02-20T08:27:35.934Z,82.26
2018-02-20T08:30:04.372Z,82.00
2018-02-20T08:32:32.809Z,81.90
2018-02-20T08:35:01.291Z,81.90
2018-02-20T08:37:29.720Z,80.56
2018-02-20T08:39:58.147Z,81.35
2018-02-20T08:42:26.613Z,81.16
2018-02-20T08:44:55.040Z,80.62
2018-02-20T08:47:23.454Z,80.22
2018-02-20T08:49:51.925Z,80.62
2018-02-20T08:52:20.369Z,80.13
2018-02-20T08:54:48.799Z,80.34
2018-02-20T08:57:17.274Z,80.90
2018-02-20T08:59:45.700Z,80.27
2018-02-20T09:02:14.126Z,80.06
2018-02-20T09:04:42.586Z,78.84
2018-02-20T09:07:11.041Z,77.73
2018-02-20T09:09:39.480Z,76.91
2018-02-20T09:12:07.967Z,76.08
2018-02-20T09:14:36.410Z,75.13
2018-02-20T09:17:04.834Z,75.37
2018-02-20T09:19:33.301Z,75.12
2018-02-20T09:22:01.745Z,74.41
2018-02-20T09:24:30.184Z,74.06
2018-02-20T09:26:58.665Z,72.55
2018-02-20T09:29:27.097Z,73.12
2018-02-20T09:31:55.527Z,72.07
2018-02-20T09:34:24.006Z,71.48
2018-02-20T09:36:52.442Z,72.73
2018-02-20T09:39:20.912Z,69.70
2018-02-20T09:41:49.396Z,70.84
2018-02-20T09:44:17.834Z,71.34
2018-02-20T09:46:46.283Z,70.70
2018-02-20T09:49:14.764Z,70.70
2018-02-20T09:51:43.201Z,70.58
2018-02-20T09:54:11.644Z,70.59
2018-02-20T09:56:40.128Z,70.03
2018-02-20T09:59:08.586Z,69.43
2018-02-20T10:01:37.022Z,69.04
2018-02-20T10:04:05.510Z,69.96
2018-02-20T10:06:33.947Z,65.83
2018-02-20T10:09:02.388Z,66.06
2018-02-20T10:11:30.881Z,65.52
2018-02-20T10:13:59.320Z,65.34
2018-02-20T10:16:27.741Z,65.56
2018-02-20T10:18:56.256Z,66.57
2018-02-20T10:21:24.717Z,64.90
2018-02-20T10:23:53.157Z,65.17
2018-02-20T10:26:21.623Z,63.72
2018-02-20T10:28:50.045Z,64.31
2018-02-20T10:31:18.470Z,63.48
2018-02-20T10:33:46.948Z,63.41
2018-02-20T10:36:15.368Z,63.11
2018-02-20T10:38:43.807Z,63.57
2018-02-20T10:41:12.304Z,63.06
2018-02-20T10:43:40.751Z,63.52
2018-02-20T10:46:09.188Z,63.35
2018-02-20T10:48:37.646Z,62.63
2018-02-20T10:51:06.088Z,62.52
2018-02-20T10:53:34.529Z,62.73
2018-02-20T10:56:03.065Z,62.45
2018-02-20T10:58:31.506Z,62.59
2018-02-20T11:00:59.952Z,61.77
2018-02-20T11:03:28.440Z,61.84
2018-02-20T11:05:57.172Z,60.63
2018-02-20T11:08:25.600Z,61.51
2018-02-20T11:10:54.116Z,62.45
2018-02-20T11:13:22.583Z,62.69
2018-02-20T11:15:51.014Z,62.64
2018-02-20T11:18:19.510Z,62.94
2018-02-20T11:20:47.968Z,62.08
2018-02-20T11:23:16.401Z,62.18
2018-02-20T11:25:44.874Z,62.53
2018-02-20T11:28:13.324Z,61.96
2018-02-20T11:30:41.787Z,62.35
2018-02-20T11:33:10.279Z,62.15
2018-02-20T11:35:38.709Z,62.38
2018-02-20T11:38:07.148Z,61.78
2018-02-20T11:40:35.616Z,62.05
2018-02-20T11:43:04.053Z,61.62
2018-02-20T11:45:32.493Z,61.40
2018-02-20T11:48:01.191Z,60.89
2018-02-20T11:50:29.640Z,61.37
2018-02-20T11:52:58.096Z,61.43
2018-02-20T11:55:26.570Z,61.22
2018-02-20T11:57:55.034Z,61.13
2018-02-20T12:00:23.470Z,60.77
2018-02-20T12:02:51.950Z,61.20
2018-02-20T12:05:20.379Z,60.27
2018-02-20T12:07:48.820Z,60.56
2018-02-20T12:10:17.318Z,60.62
2018-02-20T12:12:45.772Z,60.76
2018-02-20T12:15:14.208Z,59.97
2018-02-20T12:17:42.697Z,60.42
2018-02-20T12:20:11.152Z,60.06
2018-02-20T12:22:39.605Z,59.67
2018-02-20T12:25:08.093Z,59.81
2018-02-20T12:27:36.538Z,60.29
2018-02-20T12:30:04.979Z,59.35
2018-02-20T12:32:33.467Z,59.09
2018-02-20T12:35:01.913Z,60.10
2018-02-20T12:37:30.373Z,58.41
2018-02-20T12:39:58.873Z,59.06
2018-02-20T12:42:27.306Z,57.86
2018-02-20T12:44:55.768Z,58.49
2018-02-20T12:47:24.259Z,57.99
2018-02-20T12:49:52.706Z,57.96
2018-02-20T12:52:21.169Z,57.97
2018-02-20T12:54:49.637Z,58.16
2018-02-20T12:57:18.092Z,58.13
2018-02-20T12:59:46.528Z,57.32
2018-02-20T13:02:15.076Z,57.54
2018-02-20T13:04:43.487Z,57.72
2018-02-20T13:07:11.937Z,57.41
2018-02-20T13:09:40.415Z,57.86
2018-02-20T13:12:08.878Z,58.34
2018-02-20T13:14:37.346Z,57.41
2018-02-20T13:17:05.838Z,57.13
2018-02-20T13:19:34.281Z,57.64
2018-02-20T13:22:02.743Z,57.25
2018-02-20T13:24:31.244Z,58.13
2018-02-20T13:26:59.689Z,58.95
2018-02-20T13:29:28.139Z,59.43
2018-02-20T13:31:56.634Z,59.30
2018-02-20T13:34:25.067Z,59.50
2018-02-20T13:36:53.512Z,60.66
2018-02-20T13:39:22.000Z,61.07
2018-02-20T13:41:50.451Z,60.99
2018-02-20T13:44:18.881Z,61.61
2018-02-20T13:46:47.341Z,61.34
2018-02-20T13:49:15.780Z,61.36
2018-02-20T13:51:44.222Z,61.94
2018-02-20T13:54:12.705Z,62.24
2018-02-20T13:56:41.204Z,62.61
2018-02-20T13:59:09.651Z,61.85
2018-02-20T14:01:38.119Z,62.17
2018-02-20T14:04:06.561Z,62.88
2018-02-20T14:06:34.997Z,62.74
2018-02-20T14:09:03.549Z,62.80
2018-02-20T14:11:31.996Z,62.69
2018-02-20T14:14:00.432Z,62.59
2018-02-20T14:16:28.931Z,62.46
2018-02-20T14:18:57.363Z,62.79
2018-02-20T14:21:25.795Z,62.36
2018-02-20T14:23:54.254Z,62.87
2018-02-20T14:26:22.704Z,63.22
2018-02-20T14:28:51.156Z,62.82
2018-02-20T14:31:19.621Z,62.63
2018-02-20T14:33:48.072Z,63.09
2018-02-20T14:36:16.498Z,63.10
2018-02-20T14:38:44.987Z,63.51
2018-02-20T14:41:13.437Z,63.45
2018-02-20T14:43:41.872Z,64.18
2018-02-20T14:46:10.354Z,64.46
2018-02-20T14:48:38.821Z,64.24
2018-02-20T14:51:07.265Z,64.41
2018-02-20T14:53:35.748Z,64.31
2018-02-20T14:56:04.206Z,64.25
2018-02-20T14:58:32.650Z,64.25
2018-02-20T15:01:01.119Z,64.47
2018-02-20T15:03:29.571Z,64.65
2018-02-20T15:05:58.006Z,64.27
2018-02-20T15:08:26.527Z,64.07
2018-02-20T15:10:54.970Z,64.19
2018-02-20T15:13:23.406Z,64.62
2018-02-20T15:15:51.880Z,64.84
2018-02-20T15:18:20.343Z,65.36
2018-02-20T15:20:48.776Z,64.78
2018-02-20T15:23:17.250Z,64.44
2018-02-20T15:25:45.692Z,64.58
2018-02-20T15:28:14.151Z,64.70
2018-02-20T15:30:42.653Z,64.90
2018-02-20T15:33:11.078Z,65.06
2018-02-20T15:35:39.528Z,66.11
2018-02-20T15:38:08.013Z,67.09
2018-02-20T15:40:36.459Z,67.77
2018-02-20T15:43:04.912Z,67.64
2018-02-20T15:45:33.376Z,68.00
2018-02-20T15:48:01.812Z,67.52
2018-02-20T15:50:30.271Z,67.74
2018-02-20T15:52:58.792Z,67.83
2018-02-20T15:55:27.230Z,67.79
2018-02-20T15:57:55.651Z,68.42
2018-02-20T16:00:24.136Z,68.77
2018-02-20T16:02:52.578Z,68.89
2018-02-20T16:05:21.038Z,69.07
2018-02-20T16:07:49.514Z,68.91
2018-02-20T16:10:17.946Z,68.84
2018-02-20T16:12:46.363Z,68.90
2018-02-20T16:15:14.876Z,68.70
2018-02-20T16:17:43.309Z,68.68
2018-02-20T16:20:11.759Z,68.75
2018-02-20T16:22:40.277Z,69.10
2018-02-20T16:25:08.710Z,68.62
2018-02-20T16:27:37.177Z,68.81
2018-02-20T16:30:05.673Z,69.08
2018-02-20T16:32:34.123Z,69.37
2018-02-20T16:35:02.561Z,69.72
2018-02-20T16:37:31.060Z,69.52
2018-02-20T16:39:59.500Z,69.67
2018-02-20T16:42:27.951Z,69.84
2018-02-20T16:44:56.428Z,69.78
2018-02-20T16:47:24.865Z,69.65
2018-02-20T16:49:53.291Z,69.70
2018-02-20T16:52:21.765Z,68.47
2018-02-20T16:54:50.198Z,68.72
2018-02-20T16:57:18.636Z,68.61
2018-02-20T16:59:47.116Z,68.29
2018-02-20T17:02:15.565Z,67.72
2018-02-20T17:04:44.016Z,68.21
2018-02-20T17:07:12.529Z,67.88
2018-02-20T17:09:40.983Z,68.35
2018-02-20T17:12:09.482Z,68.51
2018-02-20T17:14:37.946Z,68.45
2018-02-20T17:17:06.369Z,68.50
2018-02-20T17:19:34.798Z,68.85
2018-02-20T17:22:03.268Z,68.94
2018-02-20T17:24:31.704Z,69.06
2018-02-20T17:27:00.136Z,68.42
2018-02-20T17:29:28.616Z,68.84
2018-02-20T17:31:57.048Z,68.97
2018-02-20T17:34:25.484Z,69.12
2018-02-20T17:36:53.960Z,68.99
2018-02-20T17:39:22.400Z,69.27
2018-02-20T17:41:50.845Z,69.69
2018-02-20T17:44:19.320Z,69.59
2018-02-20T17:46:47.784Z,70.18
2018-02-20T17:49:17.114Z,69.97
2018-02-20T17:51:45.617Z,69.94
2018-02-20T17:54:14.058Z,70.00
2018-02-20T17:56:42.485Z,70.05
2018-02-20T17:59:10.959Z,70.42
2018-02-20T18:01:39.407Z,70.29
2018-02-20T18:04:07.836Z,70.74
2018-02-20T18:06:36.297Z,70.33
2018-02-20T18:09:04.978Z,70.72
2018-02-20T18:11:33.406Z,70.96
2018-02-20T18:14:01.956Z,70.75
2018-02-20T18:16:30.584Z,70.98
2018-02-20T18:18:59.025Z,71.00
2018-02-20T18:21:27.492Z,70.88
2018-02-20T18:23:55.906Z,70.74
2018-02-20T18:26:24.344Z,70.96
2018-02-20T18:28:53.168Z,70.74
2018-02-20T18:31:21.598Z,70.80
2018-02-20T18:33:50.022Z,70.75
2018-02-20T18:36:18.496Z,70.82
2018-02-20T18:38:46.938Z,70.93
2018-02-20T18:41:15.392Z,71.05
2018-02-20T18:43:43.900Z,70.99
2018-02-20T18:46:12.335Z,70.95
2018-02-20T18:48:40.775Z,71.34
2018-02-20T18:51:09.254Z,71.31
2018-02-20T18:53:37.683Z,71.29
2018-02-20T18:56:06.124Z,70.68
2018-02-20T18:58:34.684Z,70.72
2018-02-20T19:01:03.118Z,70.66
2018-02-20T19:03:31.558Z,70.05
2018-02-20T19:06:00.056Z,70.02
2018-02-20T19:08:28.500Z,69.50
2018-02-20T19:10:56.938Z,68.64
2018-02-20T19:13:25.416Z,68.99
2018-02-20T19:15:53.845Z,68.56
2018-02-20T19:18:22.275Z,68.41
2018-02-20T19:20:51.704Z,68.68
2018-02-20T19:23:20.147Z,68.73
2018-02-20T19:25:48.585Z,68.93
2018-02-20T19:28:17.065Z,69.18
2018-02-20T19:30:45.518Z,69.33
2018-02-20T19:33:13.950Z,69.70
2018-02-20T19:35:42.427Z,70.09
2018-02-20T19:38:10.859Z,70.53
2018-02-20T19:40:39.326Z,70.70
2018-02-20T19:43:07.796Z,70.72
2018-02-20T19:45:36.231Z,71.21
2018-02-20T19:48:04.695Z,71.31
2018-02-20T19:50:33.177Z,71.51
2018-02-20T19:53:01.625Z,71.67
2018-02-20T19:55:30.078Z,71.71
2018-02-20T19:57:58.575Z,71.61
2018-02-20T20:00:27.037Z,71.67
2018-02-20T20:02:55.488Z,71.69
2018-02-20T20:05:23.978Z,71.63
2018-02-20T20:07:52.414Z,71.70
2018-02-20T20:10:20.842Z,71.18
2018-02-20T20:12:49.346Z,71.00
2018-02-20T20:15:17.786Z,71.10
2018-02-20T20:17:46.230Z,71.21
2018-02-20T20:20:14.904Z,71.55
2018-02-20T20:22:43.353Z,72.31
2018-02-20T20:25:11.811Z,72.07
2018-02-20T20:27:40.319Z,71.83
2018-02-20T20:30:08.767Z,71.99
2018-02-20T20:32:37.198Z,72.01
2018-02-20T20:35:05.667Z,72.06
2018-02-20T20:37:34.117Z,72.33
2018-02-20T20:40:02.558Z,72.46
2018-02-20T20:42:31.092Z,72.61
2018-02-20T20:44:59.541Z,72.55
2018-02-20T20:47:27.974Z,72.66
2018-02-20T20:49:56.459Z,72.87
2018-02-20T20:52:24.903Z,73.01
2018-02-20T20:54:53.338Z,73.17
2018-02-20T20:57:21.832Z,73.37
2018-02-20T20:59:50.279Z,73.50
2018-02-20T21:02:18.740Z,73.48
2018-02-20T21:04:47.232Z,73.51
2018-02-20T21:07:15.670Z,73.47
2018-02-20T21:09:44.120Z,73.52
2018-02-20T21:12:12.597Z,73.64
2018-02-20T21:14:41.055Z,73.60
2018-02-20T21:17:09.504Z,73.77
2018-02-20T21:19:38.022Z,73.85
2018-02-20T21:22:06.464Z,73.98
2018-02-20T21:24:34.920Z,74.28
2018-02-20T21:27:03.433Z,74.33
2018-02-20T21:29:31.871Z,74.48
2018-02-20T21:32:00.314Z,74.64
2018-02-20T21:34:28.788Z,74.61
2018-02-20T21:36:57.215Z,74.53
2018-02-20T21:39:25.638Z,74.64
2018-02-20T21:41:54.116Z,74.64
2018-02-20T21:44:22.553Z,74.61
2018-02-20T21:46:50.997Z,74.56
2018-02-20T21:49:19.477Z,74.96
2018-02-20T21:51:47.894Z,74.69
2018-02-20T21:54:16.320Z,74.88
2018-02-20T21:56:44.812Z,74.81
2018-02-20T21:59:13.299Z,74.83
2018-02-20T22:01:41.755Z,75.02
2018-02-20T22:04:10.240Z,74.95
2018-02-20T22:06:38.692Z,75.04
2018-02-20T22:09:07.144Z,75.06
2018-02-20T22:11:35.618Z,74.92
2018-02-20T22:14:04.071Z,75.08
2018-02-20T22:16:32.509Z,74.98
2018-02-20T22:19:00.985Z,74.92
2018-02-20T22:21:29.428Z,74.83
2018-02-20T22:23:57.873Z,75.02
2018-02-20T22:26:26.345Z,75.22
2018-02-20T22:28:54.792Z,75.39
2018-02-20T22:31:23.242Z,75.49
2018-02-20T22:33:51.741Z,75.45
2018-02-20T22:36:20.187Z,75.53
2018-02-20T22:38:48.606Z,75.63
2018-02-20T22:41:17.083Z,75.77
2018-02-20T22:43:45.528Z,75.79
2018-02-20T22:46:13.954Z,75.54
2018-02-20T22:48:42.512Z,75.27
2018-02-20T22:51:10.948Z,75.32
2018-02-20T22:53:39.365Z,75.44
2018-02-20T22:56:07.844Z,75.45
2018-02-20T22:58:36.270Z,75.37
2018-02-20T23:01:04.711Z,75.53
2018-02-20T23:03:33.165Z,75.55
2018-02-20T23:06:01.603Z,75.85
2018-02-20T23:08:30.032Z,75.65
2018-02-20T23:10:58.501Z,75.55
2018-02-20T23:13:26.927Z,75.41
2018-02-20T23:15:55.365Z,75.49
2018-02-20T23:18:24.804Z,75.47
2018-02-20T23:20:53.227Z,75.78
2018-02-20T23:23:21.647Z,75.60
2018-02-20T23:25:50.117Z,75.75
2018-02-20T23:28:18.556Z,75.66
2018-02-20T23:30:46.995Z,75.83
2018-02-20T23:33:15.461Z,75.67
2018-02-20T23:35:43.929Z,75.56
2018-02-20T23:38:12.345Z,75.66
2018-02-20T23:40:40.805Z,75.55
2018-02-20T23:43:09.235Z,75.99
2018-02-20T23:45:37.668Z,76.53
2018-02-20T23:48:06.146Z,76.37
2018-02-20T23:50:34.564Z,76.05
2018-02-20T23:53:02.987Z,75.98
2018-02-20T23:55:31.457Z,75.84
2018-02-20T23:57:59.888Z,76.05
